Latest Weather Observations for Holsworthy

IDN60801

Issued at 4:02 pm EDT Tuesday 24 January 2017 (issued every 30 minutes, with the page automatically refreshed every 10 minutes)

About weather observations | Map of weather stations | Latest weather observations for NSW | Other Formats
Station Details ID: 066161 Name: HOLSWORTHY AERODROME AWS Lat: -33.99 Lon: 150.95 Height: 68.16 m
Data from the previous 72 hours. | See also: Recent months at Holsworthy
Date/Time
EDT
Temp
°C
App
Temp
°C
Dew
Point
°C
Rel
Hum
%
Delta-T
°C
Wind Press
QNH
hPa
Press
MSL
hPa
Rain since
9am
mm
Dir  Spd
km/h
Gust
km/h
Spd
kts
Gust
kts
24/04:00pm 34.3 35.9 19.1 40 10.0 NNW 9 17 5 9 1008.8 1008.5 0.0
24/03:30pm 34.3 35.1 19.1 40 10.0 NW 13 19 7 10 1008.7 1008.4 0.0
24/03:00pm 34.5 34.7 18.5 38 10.5 NNW 15 24 8 13 1008.6 1008.3 0.0
24/02:30pm 35.0 34.6 19.4 40 10.3 W 20 32 11 17 1008.5 1008.2 0.0
24/02:00pm 34.7 35.0 18.7 38 10.5 WNW 15 28 8 15 1008.2 1007.9 0.0
24/01:30pm 34.4 33.7 19.6 41 9.8 WNW 22 37 12 20 1007.9 1007.6 0.0
24/01:00pm 36.2 35.1 17.8 33 12.0 WNW 20 35 11 19 1007.4 1007.1 0.0
24/12:30pm 36.5 36.0 18.6 35 11.8 NW 19 32 10 17 1007.0 1006.7 0.0
24/12:00pm 36.3 35.7 18.8 35 11.6 WNW 20 33 11 18 1006.9 1006.6 0.0
24/11:30am 35.2 33.4 17.9 36 11.2 WNW 24 41 13 22 1007.1 1006.8 0.0
24/11:00am 34.7 32.5 17.9 37 10.9 WNW 26 43 14 23 1007.2 1006.9 0.0
24/10:30am 35.2 34.0 17.4 34 11.5 WNW 20 33 11 18 1007.5 1007.2 0.0
24/10:00am 35.3 34.3 17.5 34 11.5 WNW 19 28 10 15 1007.4 1007.1 0.0
24/09:30am 33.9 33.9 17.2 37 10.7 W 13 39 7 21 1007.4 1007.1 0.0
24/09:00am 31.8 33.1 18.4 45 8.7 WNW 9 13 5 7 1007.6 1007.3 0.0
24/08:30am 30.2 31.9 18.0 48 7.8 W 6 9 3 5 1007.6 1007.3 0.0
24/08:00am 28.9 30.3 18.7 54 6.6 WSW 9 11 5 6 1007.8 1007.5 0.0
24/07:30am 27.7 28.3 18.7 58 5.8 SW 13 15 7 8 1007.4 1007.1 0.0
24/07:00am 26.6 27.5 18.5 61 5.2 SW 11 15 6 8 1007.0 1006.7 0.0
24/06:30am 25.2 27.0 19.6 71 3.6 WSW 9 13 5 7 1006.5 1006.2 0.0
24/06:00am 25.1 27.3 18.3 66 4.3 W 4 7 2 4 1006.3 1006.0 0.0
24/05:30am 24.9 26.4 18.1 66 4.3 WSW 7 9 4 5 1006.1 1005.8 0.0
24/05:00am 24.9 26.6 18.4 67 4.1 WSW 7 13 4 7 1006.1 1005.8 0.0
24/04:30am 24.4 27.6 18.8 71 3.6 CALM 0 2 0 1 1005.9 1005.6 0.0
24/04:00am 23.7 26.0 18.6 73 3.2 SSE 4 7 2 4 1006.0 1005.7 0.0
24/03:30am 23.8 26.8 18.4 72 3.4 CALM 0 0 0 0 1006.3 1006.0 0.0
24/03:00am 23.5 25.5 17.9 71 3.5 WSW 4 9 2 5 1006.4 1006.1 0.0
24/02:30am 25.2 27.0 18.4 66 4.3 ENE 6 7 3 4 1006.9 1006.6 0.0
24/02:00am 24.4 27.3 18.1 68 4.0 CALM 0 7 0 4 1007.2 1006.9 0.0
24/01:30am 25.5 27.2 18.4 65 4.5 E 7 9 4 5 1007.4 1007.1 0.0
24/01:00am 25.9 27.1 18.3 63 4.8 E 9 11 5 6 1007.8 1007.5 0.0
24/12:30am 26.0 26.8 18.2 62 4.9 E 11 13 6 7 1008.0 1007.7 0.0
24/12:00am 26.0 27.2 18.2 62 5.0 E 9 13 5 7 1008.2 1007.9 0.0
 
Date/Time
EDT
Temp
°C
App
Temp
°C
Dew
Point
°C
Rel
Hum
%
Delta-T
°C
Wind Press
QNH
hPa
Press
MSL
hPa
Rain since
9am
mm
Dir  Spd
km/h
Gust
km/h
Spd
kts
Gust
kts
23/11:30pm 26.0 27.1 17.9 61 5.1 E 9 11 5 6 1008.4 1008.1 0.0
23/11:00pm 26.2 26.8 17.6 59 5.4 E 11 15 6 8 1008.6 1008.3 0.0
23/10:30pm 26.7 27.1 17.2 56 6.0 E 11 13 6 7 1008.7 1008.4 0.0
23/10:00pm 27.0 27.1 16.6 53 6.5 E 11 13 6 7 1008.9 1008.6 0.0
23/09:30pm 27.0 27.0 16.3 52 6.6 E 11 13 6 7 1008.6 1008.3 0.0
23/09:00pm 27.2 26.7 15.9 50 7.0 E 13 17 7 9 1008.4 1008.1 0.0
23/08:30pm 27.8 26.8 15.5 47 7.5 ENE 15 20 8 11 1008.1 1007.8 0.0
23/08:00pm 28.4 27.7 16.3 47 7.5 E 15 22 8 12 1007.8 1007.5 0.0
23/07:30pm 29.0 28.4 17.5 49 7.3 ENE 17 26 9 14 1007.6 1007.3 0.0
23/07:00pm 29.7 28.5 17.5 48 7.8 E 20 30 11 16 1007.2 1006.9 0.0
23/06:30pm 30.1 29.1 17.9 48 7.8 ENE 20 32 11 17 1007.2 1006.9 0.0
23/06:00pm 30.8 29.3 17.8 45 8.3 ENE 22 35 12 19 1007.3 1007.0 0.0
23/05:30pm 31.7 31.0 18.7 46 8.5 ENE 20 33 11 18 1007.3 1007.0 0.0
23/05:00pm 32.4 31.7 18.6 44 9.0 E 20 33 11 18 1007.7 1007.4 0.0
23/04:30pm 32.2 30.6 18.4 44 9.0 ENE 24 35 13 19 1008.0 1007.7 0.0
23/04:00pm 32.9 32.2 18.7 43 9.3 E 20 30 11 16 1008.4 1008.1 0.0
23/03:30pm 33.2 33.0 19.7 45 8.9 ENE 20 30 11 16 1008.9 1008.6 0.0
23/03:00pm 33.0 32.5 18.7 42 9.4 E 19 37 10 20 1009.3 1009.0 0.0
23/02:30pm 32.8 32.4 18.9 43 9.1 ENE 19 28 10 15 1009.9 1009.6 0.0
23/02:00pm 32.3 32.1 18.5 44 9.0 ENE 17 26 9 14 1010.3 1010.0 0.0
23/01:30pm 32.0 32.3 17.9 43 9.1 ENE 13 24 7 13 1010.9 1010.6 0.0
23/01:00pm 32.3 32.0 17.4 41 9.5 NE 15 20 8 11 1011.5 1011.2 0.0
23/12:30pm 31.2 31.0 16.8 42 9.1 NE 13 24 7 13 1011.8 1011.5 0.0
23/12:00pm 30.1 28.9 16.1 42 8.7 NNE 17 28 9 15 1012.3 1012.0 0.0
23/11:30am 29.4 29.3 16.9 47 7.9 NE 13 26 7 14 1012.7 1012.4 0.0
23/11:00am 28.0 27.8 17.5 52 6.6 NE 15 22 8 12 1013.1 1012.8 0.0
23/10:30am 26.5 27.5 17.8 58 5.5 NNE 9 19 5 10 1013.7 1013.4 0.0
23/10:00am 25.0 25.8 18.2 66 4.3 N 11 15 6 8 1014.4 1014.0 0.0
23/09:30am 24.1 24.5 18.1 69 3.8 N 13 20 7 11 1015.0 1014.6 0.0
23/09:00am 23.9 24.7 18.1 70 3.6 N 11 19 6 10 1015.3 1015.0 0.0
23/08:30am 22.5 23.5 17.8 75 2.9 N 9 13 5 7 1014.9 1014.5 0.0
23/08:00am 21.6 22.9 17.6 78 2.5 NNW 7 11 4 6 1015.0 1014.6 0.0
23/07:30am 20.9 23.0 17.3 80 2.2 NE 2 6 1 3 1014.6 1014.2 0.0
23/07:00am 20.0 22.8 18.0 88 1.2 CALM 0 0 0 0 1014.5 1014.1 0.0
23/06:30am 19.6 21.1 17.6 88 1.2 ENE 6 7 3 4 1014.1 1013.8 0.0
23/06:00am 19.7 21.2 17.5 87 1.3 ENE 6 7 3 4 1014.0 1013.7 0.0
23/05:30am 19.7 21.0 17.5 87 1.3 ENE 7 7 4 4 1013.9 1013.6 0.0
23/05:00am 19.8 21.2 17.4 86 1.5 ENE 6 7 3 4 1013.8 1013.5 0.0
23/04:30am 20.0 21.5 17.6 86 1.5 ENE 6 9 3 5 1013.7 1013.4 0.0
23/04:00am 20.3 21.7 17.7 85 1.6 E 7 9 4 5 1013.8 1013.5 0.0
23/03:30am 20.4 21.7 17.6 84 1.7 ENE 7 9 4 5 1013.9 1013.6 0.0
23/03:00am 20.8 22.2 17.8 83 1.9 E 7 11 4 6 1014.0 1013.7 0.0
23/02:30am 21.1 22.4 17.5 80 2.2 NE 7 11 4 6 1014.2 1013.9 0.0
23/02:00am 21.3 22.2 17.5 79 2.3 ENE 9 13 5 7 1014.6 1014.2 0.0
23/01:30am 21.9 22.9 17.7 77 2.6 NE 9 17 5 9 1015.0 1014.6 0.0
23/01:00am 22.0 22.9 17.6 76 2.7 NE 9 15 5 8 1015.4 1015.1 0.0
23/12:30am 22.1 22.7 17.7 76 2.7 NNE 11 17 6 9 1015.6 1015.3 0.0
23/12:00am 22.0 22.6 17.6 76 2.7 NNE 11 17 6 9 1015.8 1015.5 0.0
 
Date/Time
EDT
Temp
°C
App
Temp
°C
Dew
Point
°C
Rel
Hum
%
Delta-T
°C
Wind Press
QNH
hPa
Press
MSL
hPa
Rain since
9am
mm
Dir  Spd
km/h
Gust
km/h
Spd
kts
Gust
kts
22/11:30pm 21.7 21.8 17.5 77 2.6 NNE 13 20 7 11 1016.0 1015.7 0.0
22/11:00pm 21.8 22.6 17.4 76 2.7 NNE 9 19 5 10 1015.9 1015.6 0.0
22/10:30pm 21.9 22.3 17.3 75 2.8 NE 11 17 6 9 1016.1 1015.8 0.0
22/10:00pm 22.1 21.9 16.8 72 3.2 NE 13 19 7 10 1015.9 1015.6 0.0
22/09:30pm 22.4 21.7 16.4 69 3.7 NE 15 24 8 13 1015.8 1015.5 0.0
22/09:00pm 22.5 21.7 16.1 67 3.9 NE 15 26 8 14 1015.5 1015.2 0.0
22/08:30pm 22.7 22.2 15.8 65 4.2 NE 13 22 7 12 1015.4 1015.1 0.0
22/08:00pm 23.1 21.9 16.2 65 4.2 ENE 17 24 9 13 1015.2 1014.9 0.0
22/07:30pm 23.6 21.8 15.6 61 4.8 ENE 19 30 10 16 1015.0 1014.6 0.0
22/07:00pm 24.6 23.2 15.5 57 5.5 ENE 17 24 9 13 1014.8 1014.4 0.0
22/06:30pm 24.9 22.7 15.0 54 6.0 ENE 20 32 11 17 1014.5 1014.1 0.0
22/06:00pm 25.4 22.3 14.5 51 6.5 E 24 32 13 17 1014.2 1013.9 0.0
22/05:30pm 26.0 23.4 14.8 50 6.7 E 22 32 12 17 1014.2 1013.9 0.0
22/05:00pm 26.5 24.4 15.2 49 6.9 ENE 20 32 11 17 1014.5 1014.1 0.0
22/04:30pm 26.7 24.6 15.1 49 7.0 ENE 20 28 11 15 1014.7 1014.3 0.0
22/04:00pm 27.0 25.4 16.0 51 6.8 ENE 19 32 10 17 1014.9 1014.5 0.0
22/03:30pm 26.9 25.1 15.6 50 6.9 NE 19 28 10 15 1015.0 1014.6 0.0
22/03:00pm 27.3 25.7 16.0 50 7.0 ESE 19 33 10 18 1015.3 1015.0 0.0
22/02:30pm 25.7 23.8 15.1 52 6.4 ESE 19 30 10 16 1015.7 1015.4 0.0
22/02:00pm 25.5 23.9 14.9 52 6.4 E 17 26 9 14 1016.0 1015.7 0.0
22/01:30pm 25.5 24.0 15.2 53 6.2 E 17 30 9 16 1016.2 1015.9 0.0
22/01:00pm 24.9 23.2 14.7 53 6.1 E 17 26 9 14 1016.6 1016.3 0.0
22/12:30pm 24.7 23.0 14.8 54 5.9 ENE 17 26 9 14 1017.0 1016.7 0.0
22/12:00pm 24.7 23.6 15.3 56 5.7 E 15 22 8 12 1017.2 1016.9 0.0
22/11:30am 23.9 22.8 14.3 55 5.7 ENE 13 22 7 12 1017.4 1017.1 0.0
22/11:00am 24.5 23.2 13.7 51 6.3 NNE 13 20 7 11 1017.5 1017.2 0.0
22/10:30am 23.7 22.2 13.0 51 6.2 NE 13 20 7 11 1017.7 1017.4 0.0
22/10:00am 23.4 22.9 13.8 54 5.6 NNW 9 17 5 9 1017.8 1017.5 0.0
22/09:30am 22.6 21.9 13.1 55 5.5 NE 9 15 5 8 1017.9 1017.6 0.0
22/09:00am 22.5 22.2 13.3 56 5.3 E 7 9 4 5 1018.1 1017.8 0.0
22/08:30am 21.2 21.6 13.6 62 4.4 WNW 4 9 2 5 1018.1 1017.8 0.0
22/08:00am 20.4 20.7 13.4 64 4.0 WSW 4 7 2 4 1018.0 1017.7 0.0
22/07:30am 19.8 19.6 13.5 67 3.6 WSW 7 9 4 5 1017.9 1017.6 0.0
22/07:00am 18.9 20.2 14.0 73 2.8 CALM 0 0 0 0 1017.6 1017.3 0.0
22/06:30am 18.8 20.2 14.5 76 2.5 CALM 0 0 0 0 1017.5 1017.2 0.0
22/06:00am 18.8 19.0 14.1 74 2.7 WSW 6 6 3 3 1017.4 1017.1 0.0
22/05:30am 18.8 19.2 13.6 72 3.0 WSW 4 6 2 3 1017.2 1016.9 0.0
22/05:00am 18.9 19.0 14.0 73 2.8 SW 6 7 3 4 1017.0 1016.7 0.0
22/04:30am 19.0 19.1 13.8 72 3.0 SW 6 7 3 4 1016.7 1016.4 0.0
22/04:00am 19.0 18.9 13.4 70 3.2 SW 6 9 3 5 1016.6 1016.3 0.0
22/03:30am 19.2 19.2 13.6 70 3.2 SW 6 7 3 4 1016.8 1016.5 0.0
22/03:00am 19.3 19.3 13.5 69 3.3 S 6 9 3 5 1016.9 1016.6 0.0
22/02:30am 19.4 19.3 13.3 68 3.5 SSE 6 9 3 5 1017.0 1016.7 0.0
22/02:00am 19.5 18.9 13.4 68 3.5 S 9 15 5 8 1017.1 1016.8 0.0
22/01:30am 19.7 19.5 13.6 68 3.5 SE 7 15 4 8 1017.3 1017.0 0.0
22/01:00am 19.8 18.9 13.7 68 3.5 SSE 11 15 6 8 1017.3 1017.0 0.0
22/12:30am 19.9 19.0 13.8 68 3.5 SSE 11 15 6 8 1017.4 1017.1 0.0
22/12:00am 20.1 19.7 14.2 69 3.4 SE 9 15 5 8 1017.5 1017.2 0.0
 
Date/Time
EDT
Temp
°C
App
Temp
°C
Dew
Point
°C
Rel
Hum
%
Delta-T
°C
Wind Press
QNH
hPa
Press
MSL
hPa
Rain since
9am
mm
Dir  Spd
km/h
Gust
km/h
Spd
kts
Gust
kts
21/11:30pm 20.2 19.1 14.3 69 3.4 SE 13 20 7 11 1017.3 1017.0 0.0
21/11:00pm 20.3 18.1 14.4 69 3.4 SE 19 24 10 13 1017.2 1016.9 0.0
21/10:30pm 20.4 18.9 14.3 68 3.6 SE 15 22 8 12 1017.1 1016.8 0.0
21/10:00pm 20.5 18.2 14.2 67 3.7 SE 19 26 10 14 1016.9 1016.6 0.0
21/09:30pm 20.6 18.8 14.5 68 3.6 SE 17 22 9 12 1016.7 1016.4 0.0
21/09:00pm 20.6 19.6 14.5 68 3.6 SE 13 15 7 8 1016.6 1016.3 0.0
21/08:30pm 20.4 19.4 14.5 69 3.4 SSE 13 20 7 11 1016.2 1015.9 0.0
21/08:00pm 20.6 18.4 14.3 67 3.7 SE 19 26 10 14 1015.7 1015.4 0.0
21/07:30pm 21.4 19.5 14.1 63 4.3 SE 17 24 9 13 1015.1 1014.8 0.0
21/07:00pm 21.8 19.2 13.7 60 4.7 SE 20 30 11 16 1014.5 1014.1 0.0
21/06:30pm 22.6 20.1 14.2 59 4.9 SE 20 26 11 14 1013.8 1013.5 0.0
21/06:00pm 22.5 19.1 13.8 58 5.1 ESE 24 32 13 17 1013.3 1013.0 0.0
21/05:30pm 23.5 20.9 13.7 54 5.7 SE 20 30 11 16 1012.9 1012.6 0.0
21/05:00pm 23.2 19.2 13.1 53 5.8 SE 26 35 14 19 1012.7 1012.4 0.0
21/04:30pm 24.1 20.7 13.6 52 6.1 SE 24 35 13 19 1012.7 1012.4 0.0

Other Formats:

Comma delimited format used in spreadsheet applications
http://www.bom.gov.au/fwo/IDN60801/IDN60801.95761.axf

JavaScript Object Notation format (JSON) in row-major order
http://www.bom.gov.au/fwo/IDN60801/IDN60801.95761.json